sensor_id;sensor_type;location;lat;lon;timestamp;temperature;humidity
53294;DHT22;39181;53.440;5.644;2023-09-30T00:01:00;16.20;99.90
53294;DHT22;39181;53.440;5.644;2023-09-30T00:03:27;16.10;99.90
53294;DHT22;39181;53.440;5.644;2023-09-30T00:05:53;16.10;99.90
53294;DHT22;39181;53.440;5.644;2023-09-30T00:08:18;16.10;99.90
53294;DHT22;39181;53.440;5.644;2023-09-30T00:10:44;16.10;99.90
53294;DHT22;39181;53.440;5.644;2023-09-30T00:13:11;16.00;99.90
53294;DHT22;39181;53.440;5.644;2023-09-30T00:15:36;16.00;99.90
53294;DHT22;39181;53.440;5.644;2023-09-30T00:18:02;16.00;99.90
53294;DHT22;39181;53.440;5.644;2023-09-30T00:20:28;16.00;99.90
53294;DHT22;39181;53.440;5.644;2023-09-30T00:22:54;16.00;99.90
53294;DHT22;39181;53.440;5.644;2023-09-30T00:25:19;16.00;99.90
53294;DHT22;39181;53.440;5.644;2023-09-30T00:27:47;16.00;99.90
53294;DHT22;39181;53.440;5.644;2023-09-30T00:30:12;16.00;99.90
53294;DHT22;39181;53.440;5.644;2023-09-30T00:32:38;16.00;99.90
53294;DHT22;39181;53.440;5.644;2023-09-30T00:35:05;16.00;99.90
53294;DHT22;39181;53.440;5.644;2023-09-30T00:37:39;15.90;99.90
53294;DHT22;39181;53.440;5.644;2023-09-30T00:40:06;15.90;99.90
53294;DHT22;39181;53.440;5.644;2023-09-30T00:42:32;15.90;99.90
53294;DHT22;39181;53.440;5.644;2023-09-30T00:44:58;15.80;99.90
53294;DHT22;39181;53.440;5.644;2023-09-30T00:47:24;15.90;99.90
53294;DHT22;39181;53.440;5.644;2023-09-30T00:49:52;15.90;99.90
53294;DHT22;39181;53.440;5.644;2023-09-30T00:52:19;15.80;99.90
53294;DHT22;39181;53.440;5.644;2023-09-30T00:54:46;15.80;99.90
53294;DHT22;39181;53.440;5.644;2023-09-30T00:57:13;15.80;99.90
53294;DHT22;39181;53.440;5.644;2023-09-30T00:59:39;15.80;99.90
53294;DHT22;39181;53.440;5.644;2023-09-30T01:02:06;15.80;99.90
53294;DHT22;39181;53.440;5.644;2023-09-30T01:04:32;15.80;99.90
53294;DHT22;39181;53.440;5.644;2023-09-30T01:06:57;15.80;99.90
53294;DHT22;39181;53.440;5.644;2023-09-30T01:09:23;15.80;99.90
53294;DHT22;39181;53.440;5.644;2023-09-30T01:11:49;15.80;99.90
53294;DHT22;39181;53.440;5.644;2023-09-30T01:14:28;15.80;99.90
53294;DHT22;39181;53.440;5.644;2023-09-30T01:16:55;15.70;99.90
53294;DHT22;39181;53.440;5.644;2023-09-30T01:19:20;15.90;99.90
53294;DHT22;39181;53.440;5.644;2023-09-30T01:21:46;15.80;99.90
53294;DHT22;39181;53.440;5.644;2023-09-30T01:24:17;15.80;99.90
53294;DHT22;39181;53.440;5.644;2023-09-30T01:26:42;15.90;99.90
53294;DHT22;39181;53.440;5.644;2023-09-30T01:29:09;15.80;99.90
53294;DHT22;39181;53.440;5.644;2023-09-30T01:31:37;15.80;99.90
53294;DHT22;39181;53.440;5.644;2023-09-30T01:34:03;15.80;99.90
53294;DHT22;39181;53.440;5.644;2023-09-30T01:36:29;15.80;99.90
53294;DHT22;39181;53.440;5.644;2023-09-30T01:38:55;15.80;99.90
53294;DHT22;39181;53.440;5.644;2023-09-30T01:41:20;15.80;99.90
53294;DHT22;39181;53.440;5.644;2023-09-30T01:43:46;15.80;99.90
53294;DHT22;39181;53.440;5.644;2023-09-30T01:46:12;15.70;99.90
53294;DHT22;39181;53.440;5.644;2023-09-30T01:48:38;15.70;99.90
53294;DHT22;39181;53.440;5.644;2023-09-30T01:51:04;15.70;99.90
53294;DHT22;39181;53.440;5.644;2023-09-30T01:53:29;15.80;99.90
53294;DHT22;39181;53.440;5.644;2023-09-30T01:55:55;15.80;99.90
53294;DHT22;39181;53.440;5.644;2023-09-30T01:58:20;15.80;99.90
53294;DHT22;39181;53.440;5.644;2023-09-30T02:00:46;15.80;99.90
53294;DHT22;39181;53.440;5.644;2023-09-30T02:03:12;15.80;99.90
53294;DHT22;39181;53.440;5.644;2023-09-30T02:05:39;15.80;99.90
53294;DHT22;39181;53.440;5.644;2023-09-30T02:08:05;15.80;99.90
53294;DHT22;39181;53.440;5.644;2023-09-30T02:10:32;15.80;99.90
53294;DHT22;39181;53.440;5.644;2023-09-30T02:12:59;15.80;99.90
53294;DHT22;39181;53.440;5.644;2023-09-30T02:15:31;15.80;99.90
53294;DHT22;39181;53.440;5.644;2023-09-30T02:17:57;15.70;99.90
53294;DHT22;39181;53.440;5.644;2023-09-30T02:20:22;15.70;99.90
53294;DHT22;39181;53.440;5.644;2023-09-30T02:22:51;15.80;99.90
53294;DHT22;39181;53.440;5.644;2023-09-30T02:25:18;15.70;99.90
53294;DHT22;39181;53.440;5.644;2023-09-30T02:27:44;15.70;99.90
53294;DHT22;39181;53.440;5.644;2023-09-30T02:30:11;15.70;99.90
53294;DHT22;39181;53.440;5.644;2023-09-30T02:32:41;15.70;99.90
53294;DHT22;39181;53.440;5.644;2023-09-30T02:35:07;15.70;99.90
53294;DHT22;39181;53.440;5.644;2023-09-30T02:37:34;15.70;99.90
53294;DHT22;39181;53.440;5.644;2023-09-30T02:40:04;15.80;99.90
53294;DHT22;39181;53.440;5.644;2023-09-30T02:42:31;15.80;99.90
53294;DHT22;39181;53.440;5.644;2023-09-30T02:44:59;15.70;99.90
53294;DHT22;39181;53.440;5.644;2023-09-30T02:47:24;15.70;99.90
53294;DHT22;39181;53.440;5.644;2023-09-30T02:49:50;15.70;99.90
53294;DHT22;39181;53.440;5.644;2023-09-30T02:52:16;15.70;99.90
53294;DHT22;39181;53.440;5.644;2023-09-30T02:54:42;15.60;99.90
53294;DHT22;39181;53.440;5.644;2023-09-30T02:57:07;15.60;99.90
53294;DHT22;39181;53.440;5.644;2023-09-30T02:59:35;15.60;99.90
53294;DHT22;39181;53.440;5.644;2023-09-30T03:02:01;15.60;99.90
53294;DHT22;39181;53.440;5.644;2023-09-30T03:04:27;15.70;99.90
53294;DHT22;39181;53.440;5.644;2023-09-30T03:06:53;15.70;99.90
53294;DHT22;39181;53.440;5.644;2023-09-30T03:09:22;15.60;99.90
53294;DHT22;39181;53.440;5.644;2023-09-30T03:11:47;15.60;99.90
53294;DHT22;39181;53.440;5.644;2023-09-30T03:14:13;15.60;99.90
53294;DHT22;39181;53.440;5.644;2023-09-30T03:16:39;15.50;99.90
53294;DHT22;39181;53.440;5.644;2023-09-30T03:19:06;15.50;99.90
53294;DHT22;39181;53.440;5.644;2023-09-30T03:21:33;15.50;99.90
53294;DHT22;39181;53.440;5.644;2023-09-30T03:23:59;15.50;99.90
53294;DHT22;39181;53.440;5.644;2023-09-30T03:26:25;15.50;99.90
53294;DHT22;39181;53.440;5.644;2023-09-30T03:28:55;15.50;99.90
53294;DHT22;39181;53.440;5.644;2023-09-30T03:31:21;15.50;99.90
53294;DHT22;39181;53.440;5.644;2023-09-30T03:33:48;15.50;99.90
53294;DHT22;39181;53.440;5.644;2023-09-30T03:36:13;15.40;99.90
53294;DHT22;39181;53.440;5.644;2023-09-30T03:38:40;15.40;99.90
53294;DHT22;39181;53.440;5.644;2023-09-30T03:41:07;15.30;99.90
53294;DHT22;39181;53.440;5.644;2023-09-30T03:43:34;15.30;99.90
53294;DHT22;39181;53.440;5.644;2023-09-30T03:46:02;15.20;99.90
53294;DHT22;39181;53.440;5.644;2023-09-30T03:48:28;15.10;99.90
53294;DHT22;39181;53.440;5.644;2023-09-30T03:50:53;15.10;99.90
53294;DHT22;39181;53.440;5.644;2023-09-30T03:53:19;15.00;99.90
53294;DHT22;39181;53.440;5.644;2023-09-30T03:55:45;15.00;99.90
53294;DHT22;39181;53.440;5.644;2023-09-30T03:58:11;14.90;99.90
53294;DHT22;39181;53.440;5.644;2023-09-30T04:00:38;14.80;99.90
53294;DHT22;39181;53.440;5.644;2023-09-30T04:03:05;14.80;99.90
53294;DHT22;39181;53.440;5.644;2023-09-30T04:05:31;14.80;99.90
53294;DHT22;39181;53.440;5.644;2023-09-30T04:08:02;14.70;99.90
53294;DHT22;39181;53.440;5.644;2023-09-30T04:10:27;14.70;99.90
53294;DHT22;39181;53.440;5.644;2023-09-30T04:12:55;14.60;99.90
53294;DHT22;39181;53.440;5.644;2023-09-30T04:15:21;14.60;99.90
53294;DHT22;39181;53.440;5.644;2023-09-30T04:17:48;14.50;99.90
53294;DHT22;39181;53.440;5.644;2023-09-30T04:20:14;14.50;99.90
53294;DHT22;39181;53.440;5.644;2023-09-30T04:22:47;14.50;99.90
53294;DHT22;39181;53.440;5.644;2023-09-30T04:25:17;14.40;99.90
53294;DHT22;39181;53.440;5.644;2023-09-30T04:27:43;14.30;99.90
53294;DHT22;39181;53.440;5.644;2023-09-30T04:30:10;14.30;99.90
53294;DHT22;39181;53.440;5.644;2023-09-30T04:32:39;14.30;99.90
53294;DHT22;39181;53.440;5.644;2023-09-30T04:35:05;14.20;99.90
53294;DHT22;39181;53.440;5.644;2023-09-30T04:37:33;14.20;99.90
53294;DHT22;39181;53.440;5.644;2023-09-30T04:39:59;14.10;99.90
53294;DHT22;39181;53.440;5.644;2023-09-30T04:42:24;14.10;99.90
53294;DHT22;39181;53.440;5.644;2023-09-30T04:44:53;14.10;99.90
53294;DHT22;39181;53.440;5.644;2023-09-30T04:47:21;14.00;99.90
53294;DHT22;39181;53.440;5.644;2023-09-30T04:49:47;14.00;99.90
53294;DHT22;39181;53.440;5.644;2023-09-30T04:52:12;14.00;99.90
53294;DHT22;39181;53.440;5.644;2023-09-30T04:54:38;14.00;99.90
53294;DHT22;39181;53.440;5.644;2023-09-30T04:57:03;13.90;99.90
53294;DHT22;39181;53.440;5.644;2023-09-30T04:59:29;13.90;99.90
53294;DHT22;39181;53.440;5.644;2023-09-30T05:01:55;13.90;99.90
53294;DHT22;39181;53.440;5.644;2023-09-30T05:04:21;14.00;99.90
53294;DHT22;39181;53.440;5.644;2023-09-30T05:06:49;14.00;99.90
53294;DHT22;39181;53.440;5.644;2023-09-30T05:09:14;14.00;99.90
53294;DHT22;39181;53.440;5.644;2023-09-30T05:11:40;14.00;99.90
53294;DHT22;39181;53.440;5.644;2023-09-30T05:14:06;14.00;99.90
53294;DHT22;39181;53.440;5.644;2023-09-30T05:16:31;14.00;99.90
53294;DHT22;39181;53.440;5.644;2023-09-30T05:18:57;14.00;99.90
53294;DHT22;39181;53.440;5.644;2023-09-30T05:21:23;13.90;99.90
53294;DHT22;39181;53.440;5.644;2023-09-30T05:23:48;13.90;99.90
53294;DHT22;39181;53.440;5.644;2023-09-30T05:26:15;13.80;99.90
53294;DHT22;39181;53.440;5.644;2023-09-30T05:28:40;13.80;99.90
53294;DHT22;39181;53.440;5.644;2023-09-30T05:31:07;13.80;99.90
53294;DHT22;39181;53.440;5.644;2023-09-30T05:33:32;13.70;99.90
53294;DHT22;39181;53.440;5.644;2023-09-30T05:35:58;13.70;99.90
53294;DHT22;39181;53.440;5.644;2023-09-30T05:38:25;13.70;99.90
53294;DHT22;39181;53.440;5.644;2023-09-30T05:40:51;13.70;99.90
53294;DHT22;39181;53.440;5.644;2023-09-30T05:43:17;13.80;99.90
53294;DHT22;39181;53.440;5.644;2023-09-30T05:45:43;13.80;99.90
53294;DHT22;39181;53.440;5.644;2023-09-30T05:48:15;13.80;99.90
53294;DHT22;39181;53.440;5.644;2023-09-30T05:50:41;13.80;99.90
53294;DHT22;39181;53.440;5.644;2023-09-30T05:53:08;13.80;99.90
53294;DHT22;39181;53.440;5.644;2023-09-30T05:55:36;13.80;99.90
53294;DHT22;39181;53.440;5.644;2023-09-30T05:58:02;13.80;99.90
53294;DHT22;39181;53.440;5.644;2023-09-30T06:00:27;13.80;99.90
53294;DHT22;39181;53.440;5.644;2023-09-30T06:02:57;13.80;99.90
53294;DHT22;39181;53.440;5.644;2023-09-30T06:05:22;13.80;99.90
53294;DHT22;39181;53.440;5.644;2023-09-30T06:07:49;13.80;99.90
53294;DHT22;39181;53.440;5.644;2023-09-30T06:10:15;13.80;99.90
53294;DHT22;39181;53.440;5.644;2023-09-30T06:12:44;13.80;99.90
53294;DHT22;39181;53.440;5.644;2023-09-30T06:15:10;13.80;99.90
53294;DHT22;39181;53.440;5.644;2023-09-30T06:17:36;13.90;99.90
53294;DHT22;39181;53.440;5.644;2023-09-30T06:20:04;13.90;99.90
53294;DHT22;39181;53.440;5.644;2023-09-30T06:22:44;13.90;99.90
53294;DHT22;39181;53.440;5.644;2023-09-30T06:25:15;14.00;99.90
53294;DHT22;39181;53.440;5.644;2023-09-30T06:27:45;14.10;99.90
53294;DHT22;39181;53.440;5.644;2023-09-30T06:30:12;14.10;99.90
53294;DHT22;39181;53.440;5.644;2023-09-30T06:32:38;14.10;99.90
53294;DHT22;39181;53.440;5.644;2023-09-30T06:35:05;14.10;99.90
53294;DHT22;39181;53.440;5.644;2023-09-30T06:37:32;14.20;99.90
53294;DHT22;39181;53.440;5.644;2023-09-30T06:40:01;14.20;99.90
53294;DHT22;39181;53.440;5.644;2023-09-30T06:42:29;14.30;99.90
53294;DHT22;39181;53.440;5.644;2023-09-30T06:44:55;14.30;99.90
53294;DHT22;39181;53.440;5.644;2023-09-30T06:47:20;14.50;99.90
53294;DHT22;39181;53.440;5.644;2023-09-30T06:49:47;14.50;99.90
53294;DHT22;39181;53.440;5.644;2023-09-30T06:52:13;14.60;99.90
53294;DHT22;39181;53.440;5.644;2023-09-30T06:54:38;14.60;99.90
53294;DHT22;39181;53.440;5.644;2023-09-30T06:57:04;14.60;99.90
53294;DHT22;39181;53.440;5.644;2023-09-30T06:59:32;14.70;99.90
53294;DHT22;39181;53.440;5.644;2023-09-30T07:01:57;14.70;99.90
53294;DHT22;39181;53.440;5.644;2023-09-30T07:04:23;14.70;99.90
53294;DHT22;39181;53.440;5.644;2023-09-30T07:06:48;14.80;99.90
53294;DHT22;39181;53.440;5.644;2023-09-30T07:09:14;14.80;99.90
53294;DHT22;39181;53.440;5.644;2023-09-30T07:11:39;14.80;99.90
53294;DHT22;39181;53.440;5.644;2023-09-30T07:14:05;14.90;99.90
53294;DHT22;39181;53.440;5.644;2023-09-30T07:16:30;14.90;99.90
53294;DHT22;39181;53.440;5.644;2023-09-30T07:18:56;15.00;99.90
53294;DHT22;39181;53.440;5.644;2023-09-30T07:21:22;14.90;99.90
53294;DHT22;39181;53.440;5.644;2023-09-30T07:23:48;15.10;99.90
53294;DHT22;39181;53.440;5.644;2023-09-30T07:26:13;15.10;99.90
53294;DHT22;39181;53.440;5.644;2023-09-30T07:28:40;15.20;99.90
53294;DHT22;39181;53.440;5.644;2023-09-30T07:31:05;15.30;99.90
53294;DHT22;39181;53.440;5.644;2023-09-30T07:33:32;15.30;99.90
53294;DHT22;39181;53.440;5.644;2023-09-30T07:35:57;15.40;99.90
53294;DHT22;39181;53.440;5.644;2023-09-30T07:38:23;15.50;99.90
53294;DHT22;39181;53.440;5.644;2023-09-30T07:40:48;15.50;99.90
53294;DHT22;39181;53.440;5.644;2023-09-30T07:43:14;15.60;99.90
53294;DHT22;39181;53.440;5.644;2023-09-30T07:45:40;15.70;99.90
53294;DHT22;39181;53.440;5.644;2023-09-30T07:48:07;15.70;99.90
53294;DHT22;39181;53.440;5.644;2023-09-30T07:50:35;15.80;99.90
53294;DHT22;39181;53.440;5.644;2023-09-30T07:53:00;15.90;99.90
53294;DHT22;39181;53.440;5.644;2023-09-30T07:55:26;16.00;99.90
53294;DHT22;39181;53.440;5.644;2023-09-30T07:57:52;16.10;99.90
53294;DHT22;39181;53.440;5.644;2023-09-30T08:00:18;16.10;99.90
53294;DHT22;39181;53.440;5.644;2023-09-30T08:02:46;16.20;99.90
53294;DHT22;39181;53.440;5.644;2023-09-30T08:05:12;16.20;99.90
53294;DHT22;39181;53.440;5.644;2023-09-30T08:07:38;16.20;99.90
53294;DHT22;39181;53.440;5.644;2023-09-30T08:10:04;16.30;99.90
53294;DHT22;39181;53.440;5.644;2023-09-30T08:12:30;16.40;99.90
53294;DHT22;39181;53.440;5.644;2023-09-30T08:14:56;16.50;99.90
53294;DHT22;39181;53.440;5.644;2023-09-30T08:17:21;16.50;99.90
53294;DHT22;39181;53.440;5.644;2023-09-30T08:19:47;16.60;99.90
53294;DHT22;39181;53.440;5.644;2023-09-30T08:22:13;16.60;99.90
53294;DHT22;39181;53.440;5.644;2023-09-30T08:24:39;16.70;99.90
53294;DHT22;39181;53.440;5.644;2023-09-30T08:27:05;16.80;99.90
53294;DHT22;39181;53.440;5.644;2023-09-30T08:29:34;16.90;99.90
53294;DHT22;39181;53.440;5.644;2023-09-30T08:32:03;16.90;99.90
53294;DHT22;39181;53.440;5.644;2023-09-30T08:34:29;17.00;99.90
53294;DHT22;39181;53.440;5.644;2023-09-30T08:36:55;17.10;99.90
53294;DHT22;39181;53.440;5.644;2023-09-30T08:39:20;17.20;99.90
53294;DHT22;39181;53.440;5.644;2023-09-30T08:41:46;17.20;99.90
53294;DHT22;39181;53.440;5.644;2023-09-30T08:44:12;17.30;99.90
53294;DHT22;39181;53.440;5.644;2023-09-30T08:46:39;17.40;99.90
53294;DHT22;39181;53.440;5.644;2023-09-30T08:49:06;17.50;99.90
53294;DHT22;39181;53.440;5.644;2023-09-30T08:51:32;17.60;99.90
53294;DHT22;39181;53.440;5.644;2023-09-30T08:53:59;17.70;99.90
53294;DHT22;39181;53.440;5.644;2023-09-30T08:56:31;17.70;99.90
53294;DHT22;39181;53.440;5.644;2023-09-30T08:59:01;17.80;99.90
53294;DHT22;39181;53.440;5.644;2023-09-30T09:01:31;17.80;99.90
53294;DHT22;39181;53.440;5.644;2023-09-30T09:03:57;17.90;99.90
53294;DHT22;39181;53.440;5.644;2023-09-30T09:06:26;18.00;99.90
53294;DHT22;39181;53.440;5.644;2023-09-30T09:08:52;18.00;99.90
53294;DHT22;39181;53.440;5.644;2023-09-30T09:11:18;18.10;99.90
53294;DHT22;39181;53.440;5.644;2023-09-30T09:13:52;18.10;99.90
53294;DHT22;39181;53.440;5.644;2023-09-30T09:16:22;18.10;99.90
53294;DHT22;39181;53.440;5.644;2023-09-30T09:18:49;18.20;99.90
53294;DHT22;39181;53.440;5.644;2023-09-30T09:21:22;18.30;99.90
53294;DHT22;39181;53.440;5.644;2023-09-30T09:23:53;18.20;99.90
53294;DHT22;39181;53.440;5.644;2023-09-30T09:26:31;18.20;99.90
53294;DHT22;39181;53.440;5.644;2023-09-30T09:29:04;18.30;99.90
53294;DHT22;39181;53.440;5.644;2023-09-30T09:31:35;18.40;99.90
53294;DHT22;39181;53.440;5.644;2023-09-30T09:34:12;18.50;99.90
53294;DHT22;39181;53.440;5.644;2023-09-30T09:36:47;18.50;99.90
53294;DHT22;39181;53.440;5.644;2023-09-30T09:39:12;18.50;99.90
53294;DHT22;39181;53.440;5.644;2023-09-30T09:41:52;18.50;99.90
53294;DHT22;39181;53.440;5.644;2023-09-30T09:44:22;18.50;99.90
53294;DHT22;39181;53.440;5.644;2023-09-30T09:46:49;18.60;99.90
53294;DHT22;39181;53.440;5.644;2023-09-30T09:49:18;18.70;99.90
53294;DHT22;39181;53.440;5.644;2023-09-30T09:51:45;18.80;99.90
53294;DHT22;39181;53.440;5.644;2023-09-30T09:54:12;18.80;99.90
53294;DHT22;39181;53.440;5.644;2023-09-30T09:56:39;18.90;99.90
53294;DHT22;39181;53.440;5.644;2023-09-30T09:59:06;18.90;99.90
53294;DHT22;39181;53.440;5.644;2023-09-30T10:01:35;18.90;99.90
53294;DHT22;39181;53.440;5.644;2023-09-30T10:04:01;18.90;99.90
53294;DHT22;39181;53.440;5.644;2023-09-30T10:06:27;18.90;99.90
53294;DHT22;39181;53.440;5.644;2023-09-30T10:08:54;18.90;99.90
53294;DHT22;39181;53.440;5.644;2023-09-30T10:11:23;18.90;99.90
53294;DHT22;39181;53.440;5.644;2023-09-30T10:21:34;19.00;99.90
53294;DHT22;39181;53.440;5.644;2023-09-30T10:29:48;19.20;99.90
53294;DHT22;39181;53.440;5.644;2023-09-30T10:32:15;19.30;99.90
53294;DHT22;39181;53.440;5.644;2023-09-30T10:34:50;19.30;99.90
53294;DHT22;39181;53.440;5.644;2023-09-30T10:37:22;19.40;99.90
53294;DHT22;39181;53.440;5.644;2023-09-30T10:39:56;19.50;99.90
53294;DHT22;39181;53.440;5.644;2023-09-30T10:42:48;19.50;99.90
53294;DHT22;39181;53.440;5.644;2023-09-30T10:50:54;19.40;99.90
53294;DHT22;39181;53.440;5.644;2023-09-30T10:53:21;19.40;99.90
53294;DHT22;39181;53.440;5.644;2023-09-30T10:55:50;19.40;99.90
53294;DHT22;39181;53.440;5.644;2023-09-30T10:58:19;19.40;99.90
53294;DHT22;39181;53.440;5.644;2023-09-30T11:00:54;19.20;99.90
53294;DHT22;39181;53.440;5.644;2023-09-30T11:03:21;19.20;99.90
53294;DHT22;39181;53.440;5.644;2023-09-30T11:05:48;19.10;99.90
53294;DHT22;39181;53.440;5.644;2023-09-30T11:08:15;19.20;99.90
53294;DHT22;39181;53.440;5.644;2023-09-30T11:10:52;19.40;99.90
53294;DHT22;39181;53.440;5.644;2023-09-30T11:13:19;19.50;99.90
53294;DHT22;39181;53.440;5.644;2023-09-30T11:15:45;19.50;99.90
53294;DHT22;39181;53.440;5.644;2023-09-30T11:18:14;19.60;99.90
53294;DHT22;39181;53.440;5.644;2023-09-30T11:20:41;19.60;99.90
53294;DHT22;39181;53.440;5.644;2023-09-30T11:23:07;19.60;99.90
53294;DHT22;39181;53.440;5.644;2023-09-30T11:25:36;19.70;99.90
53294;DHT22;39181;53.440;5.644;2023-09-30T11:28:16;19.60;99.90
53294;DHT22;39181;53.440;5.644;2023-09-30T11:31:01;19.70;99.90
53294;DHT22;39181;53.440;5.644;2023-09-30T11:33:31;19.90;99.90
53294;DHT22;39181;53.440;5.644;2023-09-30T11:36:04;19.90;99.90
53294;DHT22;39181;53.440;5.644;2023-09-30T11:38:32;20.00;99.90
53294;DHT22;39181;53.440;5.644;2023-09-30T11:41:07;20.00;99.90
53294;DHT22;39181;53.440;5.644;2023-09-30T11:43:33;20.10;99.90
53294;DHT22;39181;53.440;5.644;2023-09-30T11:46:06;20.10;99.90
53294;DHT22;39181;53.440;5.644;2023-09-30T11:48:37;20.30;99.90
53294;DHT22;39181;53.440;5.644;2023-09-30T11:51:03;20.40;99.90
53294;DHT22;39181;53.440;5.644;2023-09-30T11:53:34;20.30;99.90
53294;DHT22;39181;53.440;5.644;2023-09-30T11:56:01;20.30;99.90
53294;DHT22;39181;53.440;5.644;2023-09-30T11:58:32;20.30;99.90
53294;DHT22;39181;53.440;5.644;2023-09-30T12:00:58;20.40;99.90
53294;DHT22;39181;53.440;5.644;2023-09-30T12:03:25;20.30;99.90
53294;DHT22;39181;53.440;5.644;2023-09-30T12:05:53;20.20;99.90
53294;DHT22;39181;53.440;5.644;2023-09-30T12:08:21;20.30;99.90
53294;DHT22;39181;53.440;5.644;2023-09-30T12:10:47;20.30;99.90
53294;DHT22;39181;53.440;5.644;2023-09-30T12:13:13;20.20;99.90
53294;DHT22;39181;53.440;5.644;2023-09-30T12:15:41;20.20;99.90
53294;DHT22;39181;53.440;5.644;2023-09-30T12:18:06;20.00;99.90
53294;DHT22;39181;53.440;5.644;2023-09-30T12:20:32;20.00;99.90
53294;DHT22;39181;53.440;5.644;2023-09-30T12:22:58;20.00;99.90
53294;DHT22;39181;53.440;5.644;2023-09-30T12:25:24;19.80;99.90
53294;DHT22;39181;53.440;5.644;2023-09-30T12:27:50;19.70;99.90
53294;DHT22;39181;53.440;5.644;2023-09-30T12:30:16;19.60;99.90
53294;DHT22;39181;53.440;5.644;2023-09-30T12:32:45;19.60;99.90
53294;DHT22;39181;53.440;5.644;2023-09-30T12:35:11;19.60;99.90
53294;DHT22;39181;53.440;5.644;2023-09-30T12:37:37;19.60;99.90
53294;DHT22;39181;53.440;5.644;2023-09-30T12:40:05;19.70;99.90
53294;DHT22;39181;53.440;5.644;2023-09-30T12:42:32;19.90;99.90
53294;DHT22;39181;53.440;5.644;2023-09-30T12:45:00;20.00;99.90
53294;DHT22;39181;53.440;5.644;2023-09-30T12:47:26;20.10;99.90
53294;DHT22;39181;53.440;5.644;2023-09-30T12:49:52;20.20;99.90
53294;DHT22;39181;53.440;5.644;2023-09-30T12:52:20;20.30;99.90
53294;DHT22;39181;53.440;5.644;2023-09-30T12:54:45;20.30;99.90
53294;DHT22;39181;53.440;5.644;2023-09-30T12:57:12;20.30;99.90
53294;DHT22;39181;53.440;5.644;2023-09-30T12:59:39;20.30;99.90
53294;DHT22;39181;53.440;5.644;2023-09-30T13:02:04;20.30;99.90
53294;DHT22;39181;53.440;5.644;2023-09-30T13:04:31;20.20;99.90
53294;DHT22;39181;53.440;5.644;2023-09-30T13:06:57;20.20;99.90
53294;DHT22;39181;53.440;5.644;2023-09-30T13:09:23;20.20;99.90
53294;DHT22;39181;53.440;5.644;2023-09-30T13:11:49;20.20;99.90
53294;DHT22;39181;53.440;5.644;2023-09-30T13:14:14;20.30;99.90
53294;DHT22;39181;53.440;5.644;2023-09-30T13:16:40;20.30;99.90
53294;DHT22;39181;53.440;5.644;2023-09-30T13:19:06;20.40;99.90
53294;DHT22;39181;53.440;5.644;2023-09-30T13:21:32;20.30;99.90
53294;DHT22;39181;53.440;5.644;2023-09-30T13:23:57;20.40;99.90
53294;DHT22;39181;53.440;5.644;2023-09-30T13:26:23;20.40;99.90
53294;DHT22;39181;53.440;5.644;2023-09-30T13:28:48;20.40;99.90
53294;DHT22;39181;53.440;5.644;2023-09-30T13:31:14;20.20;99.90
53294;DHT22;39181;53.440;5.644;2023-09-30T13:33:40;20.10;99.90
53294;DHT22;39181;53.440;5.644;2023-09-30T13:36:05;20.00;99.90
53294;DHT22;39181;53.440;5.644;2023-09-30T13:38:31;20.10;99.90
53294;DHT22;39181;53.440;5.644;2023-09-30T13:40:56;20.00;99.90
53294;DHT22;39181;53.440;5.644;2023-09-30T13:43:22;20.00;99.90
53294;DHT22;39181;53.440;5.644;2023-09-30T13:45:47;19.90;99.90
53294;DHT22;39181;53.440;5.644;2023-09-30T13:48:14;19.90;99.90
53294;DHT22;39181;53.440;5.644;2023-09-30T13:50:39;19.70;99.90
53294;DHT22;39181;53.440;5.644;2023-09-30T13:53:05;19.60;99.90
53294;DHT22;39181;53.440;5.644;2023-09-30T13:55:30;19.40;99.90
53294;DHT22;39181;53.440;5.644;2023-09-30T13:57:57;19.40;99.90
53294;DHT22;39181;53.440;5.644;2023-09-30T14:00:22;19.30;99.90
53294;DHT22;39181;53.440;5.644;2023-09-30T14:02:48;19.20;99.90
53294;DHT22;39181;53.440;5.644;2023-09-30T14:05:13;19.20;99.90
53294;DHT22;39181;53.440;5.644;2023-09-30T14:07:39;19.10;99.90
53294;DHT22;39181;53.440;5.644;2023-09-30T14:10:09;19.10;99.90
53294;DHT22;39181;53.440;5.644;2023-09-30T14:12:36;19.20;99.90
53294;DHT22;39181;53.440;5.644;2023-09-30T14:15:03;19.30;99.90
53294;DHT22;39181;53.440;5.644;2023-09-30T14:17:30;19.30;99.90
53294;DHT22;39181;53.440;5.644;2023-09-30T14:19:56;19.30;99.90
53294;DHT22;39181;53.440;5.644;2023-09-30T14:22:21;19.30;99.90
53294;DHT22;39181;53.440;5.644;2023-09-30T14:24:47;19.40;99.90
53294;DHT22;39181;53.440;5.644;2023-09-30T14:27:13;19.30;99.90
53294;DHT22;39181;53.440;5.644;2023-09-30T14:29:40;19.30;99.90
53294;DHT22;39181;53.440;5.644;2023-09-30T14:32:06;19.20;99.90
53294;DHT22;39181;53.440;5.644;2023-09-30T14:34:32;19.10;99.90
53294;DHT22;39181;53.440;5.644;2023-09-30T14:36:58;19.10;99.90
53294;DHT22;39181;53.440;5.644;2023-09-30T14:39:24;19.00;99.90
53294;DHT22;39181;53.440;5.644;2023-09-30T14:41:49;18.90;99.90
53294;DHT22;39181;53.440;5.644;2023-09-30T14:44:15;18.90;99.90
53294;DHT22;39181;53.440;5.644;2023-09-30T14:46:40;18.80;99.90
53294;DHT22;39181;53.440;5.644;2023-09-30T14:49:06;18.80;99.90
53294;DHT22;39181;53.440;5.644;2023-09-30T14:51:33;18.70;99.90
53294;DHT22;39181;53.440;5.644;2023-09-30T14:53:58;18.60;99.90
53294;DHT22;39181;53.440;5.644;2023-09-30T14:56:24;18.60;99.90
53294;DHT22;39181;53.440;5.644;2023-09-30T14:58:49;18.50;99.90
53294;DHT22;39181;53.440;5.644;2023-09-30T15:01:15;18.50;99.90
53294;DHT22;39181;53.440;5.644;2023-09-30T15:03:40;18.40;99.90
53294;DHT22;39181;53.440;5.644;2023-09-30T15:06:07;18.40;99.90
53294;DHT22;39181;53.440;5.644;2023-09-30T15:08:33;18.30;99.90
53294;DHT22;39181;53.440;5.644;2023-09-30T15:10:59;18.30;99.90
53294;DHT22;39181;53.440;5.644;2023-09-30T15:13:25;18.30;99.90
53294;DHT22;39181;53.440;5.644;2023-09-30T15:15:51;18.30;99.90
53294;DHT22;39181;53.440;5.644;2023-09-30T15:18:18;18.20;99.90
53294;DHT22;39181;53.440;5.644;2023-09-30T15:20:43;18.20;99.90
53294;DHT22;39181;53.440;5.644;2023-09-30T15:23:10;18.30;99.90
53294;DHT22;39181;53.440;5.644;2023-09-30T15:25:43;18.20;99.90
53294;DHT22;39181;53.440;5.644;2023-09-30T15:28:15;18.20;99.90
53294;DHT22;39181;53.440;5.644;2023-09-30T15:30:40;18.10;99.90
53294;DHT22;39181;53.440;5.644;2023-09-30T15:33:06;18.10;99.90
53294;DHT22;39181;53.440;5.644;2023-09-30T15:35:32;18.00;99.90
53294;DHT22;39181;53.440;5.644;2023-09-30T15:37:57;18.00;99.90
53294;DHT22;39181;53.440;5.644;2023-09-30T15:40:24;18.00;99.90
53294;DHT22;39181;53.440;5.644;2023-09-30T15:42:49;17.90;99.90
53294;DHT22;39181;53.440;5.644;2023-09-30T15:45:15;18.00;99.90
53294;DHT22;39181;53.440;5.644;2023-09-30T15:47:43;17.90;99.90